createdAt,value
2019-02-12T00:00:28.976Z,17.57
2019-02-12T00:05:32.976Z,19.75
2019-02-12T00:10:36.523Z,22.00
2019-02-12T00:15:42.722Z,22.37
2019-02-12T00:20:49.751Z,22.00
2019-02-12T00:25:56.725Z,22.62
2019-02-12T00:31:03.812Z,24.75
2019-02-12T00:36:12.683Z,27.00
2019-02-12T00:41:21.414Z,23.75
2019-02-12T00:46:29.481Z,26.78
2019-02-12T00:51:38.176Z,22.37
2019-02-12T00:56:42.803Z,22.00
2019-02-12T01:01:49.094Z,20.88
2019-02-12T01:06:52.974Z,19.00
2019-02-12T01:11:59.323Z,23.00
2019-02-12T01:17:04.542Z,24.00
2019-02-12T01:22:12.449Z,20.00
2019-02-12T01:27:15.999Z,15.00
2019-02-12T01:32:18.993Z,15.00
2019-02-12T01:37:26.087Z,18.57
2019-02-12T01:42:29.991Z,18.00
2019-02-12T01:47:33.730Z,19.75
2019-02-12T01:52:39.963Z,12.71
2019-02-12T01:57:45.190Z,16.00
2019-02-12T02:02:50.611Z,15.29
2019-02-12T02:07:56.645Z,15.38
2019-02-12T02:13:04.103Z,17.75
2019-02-12T02:18:10.120Z,16.00
2019-02-12T02:23:16.247Z,17.37
2019-02-12T02:28:20.003Z,16.67
2019-02-12T02:33:23.515Z,18.33
2019-02-12T02:38:29.809Z,15.29
2019-02-12T02:43:35.843Z,15.13
2019-02-12T02:48:41.292Z,16.29
2019-02-12T02:53:47.229Z,18.00
2019-02-12T02:58:54.987Z,19.00
2019-02-12T03:04:00.456Z,19.00
2019-02-12T03:09:06.826Z,18.62
2019-02-12T03:14:15.647Z,18.50
2019-02-12T03:19:21.125Z,15.29
2019-02-12T03:24:24.327Z,13.33
2019-02-12T03:29:32.522Z,12.29
2019-02-12T03:34:36.179Z,10.83
2019-02-12T03:39:39.763Z,14.25
2019-02-12T03:44:44.477Z,10.00
2019-02-12T03:49:48.950Z,9.71
2019-02-12T03:54:53.539Z,12.14
2019-02-12T03:59:59.182Z,9.00
2019-02-12T04:05:03.003Z,12.00
2019-02-12T04:10:10.712Z,9.33
2019-02-12T04:15:14.326Z,9.40
2019-02-12T04:20:21.518Z,9.43
2019-02-12T04:25:26.967Z,9.29
2019-02-12T04:30:30.816Z,9.00
2019-02-12T04:35:37.004Z,8.00
2019-02-12T04:40:40.564Z,9.00
2019-02-12T04:45:45.003Z,7.00
2019-02-12T04:50:49.435Z,6.83
2019-02-12T04:55:53.203Z,8.67
2019-02-12T05:00:59.641Z,7.00
2019-02-12T05:06:07.347Z,8.50
2019-02-12T05:11:11.786Z,6.83
2019-02-12T05:16:15.540Z,8.20
2019-02-12T05:21:22.534Z,7.67
2019-02-12T05:26:26.875Z,8.00
2019-02-12T05:31:34.716Z,8.20
2019-02-12T05:36:39.404Z,6.50
2019-02-12T05:41:47.847Z,10.43
2019-02-12T05:46:52.143Z,6.00
2019-02-12T05:51:55.831Z,9.00
2019-02-12T05:56:59.481Z,7.00
2019-02-12T06:02:06.514Z,8.00
2019-02-12T06:07:10.474Z,7.80
2019-02-12T06:12:16.952Z,7.33
2019-02-12T06:17:21.410Z,10.29
2019-02-12T06:22:25.928Z,12.86
2019-02-12T06:27:30.343Z,10.71
2019-02-12T06:32:35.659Z,7.83
2019-02-12T06:37:42.807Z,8.17
2019-02-12T06:42:47.239Z,7.67
2019-02-12T06:47:52.447Z,10.00
2019-02-12T06:52:56.937Z,10.00
2019-02-12T06:58:01.307Z,8.17
2019-02-12T07:03:15.807Z,6.83
2019-02-12T07:08:29.620Z,8.33
2019-02-12T07:13:36.571Z,11.00
2019-02-12T07:18:51.883Z,12.00
2019-02-12T07:23:58.020Z,13.71
2019-02-12T07:29:16.816Z,13.00
2019-02-12T07:34:25.873Z,12.00
2019-02-12T07:39:33.549Z,14.50
2019-02-12T07:44:38.603Z,14.00
2019-02-12T07:49:44.850Z,15.00
2019-02-12T07:54:52.773Z,15.25
2019-02-12T07:59:59.071Z,14.00
2019-02-12T08:05:23.630Z,16.62
2019-02-12T08:10:45.831Z,18.00
2019-02-12T08:15:53.127Z,18.75
2019-02-12T08:21:16.343Z,22.78
2019-02-12T08:26:24.871Z,15.00
2019-02-12T08:31:48.944Z,13.00
2019-02-12T08:37:08.406Z,13.00
2019-02-12T08:42:15.815Z,14.00
2019-02-12T08:47:26.679Z,12.71
2019-02-12T08:52:50.522Z,9.57
2019-02-12T08:58:11.210Z,7.33
2019-02-12T09:03:36.511Z,10.11
2019-02-12T09:08:43.029Z,9.14
2019-02-12T09:13:52.563Z,10.33
2019-02-12T09:19:05.427Z,11.00
2019-02-12T09:24:17.950Z,11.22
2019-02-12T09:29:29.223Z,18.00
2019-02-12T09:34:36.656Z,13.14
2019-02-12T09:39:59.538Z,15.00
2019-02-12T09:45:07.111Z,12.43
2019-02-12T09:50:26.698Z,14.71
2019-02-12T09:55:41.590Z,10.80
2019-02-12T10:00:53.968Z,13.00
2019-02-12T10:06:21.713Z,12.14
2019-02-12T10:11:33.394Z,13.00
2019-02-12T10:16:45.666Z,10.57
2019-02-12T10:22:05.235Z,12.00
2019-02-12T10:27:16.997Z,9.00
2019-02-12T10:32:21.247Z,8.67
2019-02-12T10:37:30.053Z,22.25
2019-02-12T10:42:33.702Z,8.00
2019-02-12T10:47:40.119Z,11.00
2019-02-12T10:52:45.400Z,11.14
2019-02-12T10:57:51.656Z,12.00
2019-02-12T11:02:57.854Z,11.00
2019-02-12T11:08:01.600Z,9.67
2019-02-12T11:13:06.109Z,10.29
2019-02-12T11:18:10.806Z,9.00
2019-02-12T11:23:15.439Z,12.00
2019-02-12T11:28:21.134Z,9.00
2019-02-12T11:33:25.895Z,10.86
2019-02-12T11:38:33.160Z,14.75
2019-02-12T11:43:39.496Z,12.71
2019-02-12T11:48:44.123Z,10.71
2019-02-12T11:53:48.034Z,9.33
2019-02-12T11:58:52.885Z,10.86
2019-02-12T12:03:56.723Z,9.00
2019-02-12T12:09:00.391Z,13.50
2019-02-12T12:14:06.652Z,10.57
2019-02-12T12:19:12.329Z,8.00
2019-02-12T12:24:16.115Z,10.83
2019-02-12T12:29:23.408Z,18.00
2019-02-12T12:34:29.655Z,11.57
2019-02-12T12:39:33.523Z,10.00
2019-02-12T12:44:37.376Z,11.67
2019-02-12T12:49:44.427Z,13.71
2019-02-12T12:54:50.703Z,10.00
2019-02-12T12:59:54.460Z,11.17
2019-02-12T13:04:58.998Z,13.00
2019-02-12T13:10:07.816Z,14.38
2019-02-12T13:15:14.496Z,13.00
2019-02-12T13:20:18.471Z,15.33
2019-02-12T13:25:23.775Z,13.71
2019-02-12T13:30:30.178Z,13.00
2019-02-12T13:35:36.361Z,20.62
2019-02-12T13:40:39.300Z,12.67
2019-02-12T13:45:43.860Z,12.71
2019-02-12T13:50:49.258Z,14.43
2019-02-12T13:55:53.000Z,11.33
2019-02-12T14:00:56.939Z,13.00
2019-02-12T14:06:01.504Z,11.29
2019-02-12T14:11:07.817Z,12.00
2019-02-12T14:16:14.198Z,12.00
2019-02-12T14:21:18.014Z,15.00
2019-02-12T14:26:23.856Z,12.71
2019-02-12T14:31:28.735Z,11.33
2019-02-12T14:36:35.135Z,13.00
2019-02-12T14:41:42.584Z,12.88
2019-02-12T14:46:49.246Z,12.29
2019-02-12T14:51:53.340Z,10.00
2019-02-12T14:56:58.142Z,10.86
2019-02-12T15:02:03.133Z,12.29
2019-02-12T15:07:06.083Z,24.00
2019-02-12T15:12:12.359Z,13.00
2019-02-12T15:17:15.784Z,14.75
2019-02-12T15:22:20.832Z,11.50
2019-02-12T15:27:25.672Z,17.00
2019-02-12T15:32:31.175Z,17.86
2019-02-12T15:37:35.946Z,15.43
2019-02-12T15:42:41.958Z,23.29
2019-02-12T15:47:50.527Z,15.80
2019-02-12T15:52:53.966Z,15.75
2019-02-12T15:57:57.195Z,18.00
2019-02-12T16:03:03.991Z,19.50
2019-02-12T16:08:12.425Z,16.62
2019-02-12T16:13:16.982Z,20.29
2019-02-12T16:18:24.932Z,17.00
2019-02-12T16:23:30.767Z,17.50
2019-02-12T16:28:34.835Z,16.67
2019-02-12T16:33:37.946Z,19.25
2019-02-12T16:38:42.854Z,16.00
2019-02-12T16:43:50.051Z,25.75
2019-02-12T16:48:56.050Z,18.00
2019-02-12T16:54:02.187Z,13.14
2019-02-12T16:59:09.608Z,15.25
2019-02-12T17:04:18.954Z,19.00
2019-02-12T17:09:23.518Z,14.57
2019-02-12T17:14:29.602Z,25.25
2019-02-12T17:19:37.201Z,16.00
2019-02-12T17:24:42.902Z,18.14
2019-02-12T17:29:46.978Z,19.67
2019-02-12T17:35:01.053Z,20.75
2019-02-12T17:40:01.088Z,23.00
2019-02-12T17:45:08.019Z,25.25
2019-02-12T17:50:19.002Z,26.75
2019-02-12T17:55:28.123Z,28.38
2019-02-12T18:00:33.123Z,21.50
2019-02-12T18:05:37.343Z,22.50
2019-02-12T18:10:41.538Z,21.00
2019-02-12T18:15:48.148Z,23.00
2019-02-12T18:20:54.688Z,21.12
2019-02-12T18:25:58.943Z,25.60
2019-02-12T18:31:06.618Z,18.62
2019-02-12T18:36:15.274Z,26.25
2019-02-12T18:41:22.823Z,22.75
2019-02-12T18:46:31.775Z,16.37
2019-02-12T18:51:40.029Z,18.37
2019-02-12T18:56:46.944Z,26.00
2019-02-12T19:01:55.161Z,20.00
2019-02-12T19:06:59.731Z,21.00
2019-02-12T19:12:03.532Z,24.00
2019-02-12T19:17:11.574Z,28.25
2019-02-12T19:22:17.866Z,31.62
2019-02-12T19:27:26.754Z,31.25
2019-02-12T19:32:35.871Z,23.00
2019-02-12T19:37:43.279Z,26.50
2019-02-12T19:42:52.258Z,23.12
2019-02-12T19:47:56.871Z,22.25
2019-02-12T19:53:02.353Z,22.57
2019-02-12T19:58:06.706Z,19.50
2019-02-12T20:03:14.707Z,24.25
2019-02-12T20:08:23.559Z,21.25
2019-02-12T20:13:28.111Z,20.50
2019-02-12T20:18:36.856Z,24.75
2019-02-12T20:23:48.478Z,58.75
2019-02-12T20:28:51.658Z,47.33
2019-02-12T20:33:58.051Z,25.89
2019-02-12T20:39:06.912Z,23.00
2019-02-12T20:44:15.578Z,26.50
2019-02-12T20:49:22.091Z,24.37
2019-02-12T20:54:28.351Z,15.88
2019-02-12T20:59:37.358Z,20.62
2019-02-12T21:04:43.303Z,20.14
2019-02-12T21:09:52.105Z,23.75
2019-02-12T21:15:01.152Z,24.12
2019-02-12T21:20:11.009Z,23.87
2019-02-12T21:25:19.709Z,20.12
2019-02-12T21:30:29.647Z,20.62
2019-02-12T21:35:33.946Z,22.50
2019-02-12T21:40:40.399Z,23.78
2019-02-12T21:45:49.234Z,24.25
2019-02-12T21:50:57.521Z,22.62
2019-02-12T21:56:06.762Z,25.88
2019-02-12T22:01:17.224Z,28.38
2019-02-12T22:06:23.631Z,30.00
2019-02-12T22:11:32.970Z,36.25
2019-02-12T22:16:37.322Z,27.00
2019-02-12T22:21:41.903Z,26.75
2019-02-12T22:26:49.770Z,28.38
2019-02-12T22:31:58.356Z,31.75
2019-02-12T22:37:01.920Z,31.50
2019-02-12T22:42:10.791Z,30.25
2019-02-12T22:47:15.162Z,34.75
2019-02-12T22:52:19.760Z,30.00
2019-02-12T22:57:28.163Z,30.25
2019-02-12T23:02:34.734Z,32.38
2019-02-12T23:07:38.589Z,26.75
2019-02-12T23:12:48.853Z,34.78
2019-02-12T23:17:56.120Z,32.75
2019-02-12T23:23:00.980Z,34.50
2019-02-12T23:28:07.402Z,37.56
2019-02-12T23:33:12.296Z,32.75
2019-02-12T23:38:15.670Z,36.00
2019-02-12T23:43:23.918Z,33.25
2019-02-12T23:48:28.799Z,32.00
2019-02-12T23:53:35.275Z,33.33
2019-02-12T23:58:43.232Z,33.56
